createdAt,value
2023-02-12T00:03:21.084Z,1.70
2023-02-12T00:18:23.267Z,1.00
2023-02-12T00:33:25.337Z,0.80
2023-02-12T00:48:27.424Z,0.70
2023-02-12T01:03:29.511Z,1.20
2023-02-12T01:18:31.718Z,1.40
2023-02-12T01:33:33.711Z,1.52
2023-02-12T01:48:40.128Z,1.80
2023-02-12T02:03:44.481Z,1.95
2023-02-12T02:19:02.802Z,1.92
2023-02-12T02:34:28.000Z,1.90
2023-02-12T02:49:42.722Z,2.60
2023-02-12T03:04:50.718Z,2.10
2023-02-12T03:19:58.743Z,2.30
2023-02-12T03:35:22.289Z,2.97
2023-02-12T03:50:29.649Z,2.38
2023-02-12T04:05:31.706Z,2.40
2023-02-12T04:20:54.578Z,2.40
2023-02-12T04:36:10.869Z,1.70
2023-02-12T04:51:12.931Z,2.20
2023-02-12T05:06:15.081Z,2.25
2023-02-12T05:21:17.634Z,1.90
2023-02-12T05:36:22.674Z,2.22
2023-02-12T05:51:26.940Z,1.98
2023-02-12T06:06:30.787Z,1.90
2023-02-12T06:21:33.708Z,2.10
2023-02-12T06:36:39.017Z,2.00
2023-02-12T06:51:41.713Z,3.08
2023-02-12T07:06:43.846Z,3.70
2023-02-12T07:21:46.123Z,3.15
2023-02-12T07:36:48.133Z,3.10
2023-02-12T07:51:50.950Z,2.58
2023-02-12T08:06:55.867Z,3.65
2023-02-12T08:21:58.687Z,5.32
2023-02-12T08:37:01.550Z,1.75
2023-02-12T08:52:04.016Z,1.70
2023-02-12T09:07:06.933Z,2.65
2023-02-12T09:22:09.834Z,2.20
2023-02-12T09:37:12.164Z,2.28
2023-02-12T09:52:18.700Z,2.08
2023-02-12T10:07:40.846Z,1.60
2023-02-12T10:22:56.484Z,3.05
2023-02-12T10:38:06.613Z,3.25
2023-02-12T10:53:23.151Z,2.97
2023-02-12T11:08:33.303Z,3.50
2023-02-12T11:23:38.975Z,3.20
2023-02-12T11:38:56.538Z,4.35
2023-02-12T11:54:03.656Z,3.70
2023-02-12T12:09:30.245Z,4.25
2023-02-12T12:24:47.564Z,5.07
2023-02-12T12:39:50.584Z,8.70
2023-02-12T12:55:24.412Z,15.77
2023-02-12T13:10:51.408Z,6.82
2023-02-12T13:26:08.284Z,5.85
2023-02-12T13:41:13.189Z,5.82
2023-02-12T13:56:49.377Z,6.38
2023-02-12T14:11:55.156Z,7.70
2023-02-12T14:26:58.625Z,7.25
2023-02-12T14:42:07.186Z,7.38
2023-02-12T14:57:28.598Z,7.88
2023-02-12T15:12:39.901Z,9.15
2023-02-12T15:27:49.907Z,9.70
2023-02-12T15:58:23.221Z,26.90
2023-02-12T16:13:35.019Z,11.10
2023-02-12T16:28:39.942Z,18.80
2023-02-12T16:43:43.245Z,11.20
2023-02-12T16:58:50.469Z,20.98
2023-02-12T17:13:55.631Z,10.70
2023-02-12T17:29:06.131Z,13.30
2023-02-12T17:44:14.103Z,14.45
2023-02-12T17:59:17.356Z,14.10
2023-02-12T18:14:23.156Z,16.02
2023-02-12T18:29:26.947Z,15.40
2023-02-12T18:44:31.335Z,15.70
2023-02-12T18:59:34.709Z,14.00
2023-02-12T19:14:37.571Z,18.55
2023-02-12T19:29:41.602Z,14.75
2023-02-12T19:44:47.574Z,14.70
2023-02-12T19:59:50.518Z,14.20
2023-02-12T20:14:56.635Z,13.88
2023-02-12T20:30:01.250Z,17.60
2023-02-12T20:45:07.375Z,16.23
2023-02-12T21:00:11.996Z,16.38
2023-02-12T21:15:14.967Z,17.35
2023-02-12T21:30:18.146Z,15.88
2023-02-12T21:45:23.790Z,17.75
2023-02-12T22:00:25.873Z,17.15
2023-02-12T22:15:27.998Z,16.95
2023-02-12T22:30:30.082Z,16.17
2023-02-12T22:45:32.250Z,15.95
2023-02-12T23:00:34.677Z,16.25
2023-02-12T23:15:36.688Z,17.25
2023-02-12T23:30:39.313Z,16.33
2023-02-12T23:45:43.694Z,17.05
